Estación Meteorológica Peña el Pijo (Robertgarden) [ 02/03/23 03:52:09 CET ]

Fecha Hora Presion(HPa) Temp (°C) Humedad % Rocio (°C) Viento ( m/s) Direccion Lluvia 1Hora(mm) Lluvia 24H(mm) LLuvia Total(mm)
2012-Feb-18 01:01:13 1012.200 -3.6 85 -5.8         153.32
2012-Feb-18 02:01:43 1012.000 -3.9 86 -5.9         153.32
2012-Feb-18 03:03:21 1011.800 -4.5 87 -6.3         153.32
2012-Feb-18 04:01:11 1011.400 -5.0 87 -6.8         153.32
2012-Feb-18 05:01:16 1011.300 -5.4 87 -7.2         153.32
2012-Feb-18 06:01:12 1011.200 -5.6 87 -7.5         153.32
2012-Feb-18 07:01:12 1011.100 -5.2 88 -6.9         153.32
2012-Feb-18 08:01:16 1011.300 -5.1 87 -7.0         153.32
2012-Feb-18 09:01:13 1011.700 -4.1 89 -5.7         153.32
2012-Feb-18 10:01:13 1011.600 2.3 79 -1.0         153.32
2012-Feb-18 11:01:15 1011.500 8.0 59 0.5         153.32
2012-Feb-18 12:01:16 1011.600 9.8 47 -1.0         153.32
2012-Feb-18 13:01:17 1010.800 11.9 41 -1.0         153.32
2012-Feb-18 14:01:22 1010.200 13.9 35 -1.8         153.32
2012-Feb-18 15:01:16 1009.500 14.3 32 -2.2         153.32
2012-Feb-18 16:01:14 1009.400 14.8 31 -2.2         153.32
2012-Feb-18 17:01:15 1009.100 14.3 31 -2.6         153.32
2012-Feb-18 18:01:16 1009.100 10.2 36 -4.3         153.32
2012-Feb-18 19:01:16 1009.500 7.2 42 -4.9         153.32
2012-Feb-18 20:01:12 1010.200 3.9 50 -5.6         153.32
2012-Feb-18 21:01:13 1010.600 1.1 61 -5.6         153.32
2012-Feb-18 22:01:17 1011.000 -0.4 65 -6.2         153.32
2012-Feb-18 23:01:15 1011.200 -0.9 70 -5.7         153.32

Temperatura Máxima:14°    Temperatura Mínima:-5°
Presión Máxima:1012.200 Hpa    Presión Mínima:1009.100 Hpa


Volver